Kirkwood, Illinois
Current Conditions -  °F | °C
As of 6:15 AM on Monday 20 Oct 2014 (Local Time) from KGBG Reporting Station
Clear Clear  
Wind Chill: 43°   Ceiling: Unl
Heat Index: 47°   Visibility: 10mi
Dew Point: 44°   Wind: 7mph
Humidity: 90%   Direction: 270°W
Pressure: 29.89"   Gusts: NA
Location:  40.87°N, 90.75°W
Report Text: KGBG 201115Z AUTO 27006KT 10SM CLR 08/07 A2989 RMK AO2 T00820067
Loading
Personal Weather Stations






























Interactive Weather Map
Tropical Storm Tracking
New forecast layout! Learn more

10-Day Weather Forecast

Advertisements
Track Severe Weather on mobile